Time;durP1;ratioP1;P1;durP2;ratioP2;P2;SDS_P1;SDS_P2;PMS_P1;PMS_P2;Temp;Humidity;BMP_temperature;BMP_pressure;BME280_temperature;BME280_humidity;BME280_pressure;Samples;Min_cycle;Max_cycle;Signal;HPM_P1;HPM_P2
2022/10/25 00:00:40;;;;;;;26.02;17.98;;;12.00;99.90;;;;;;5004411;28;20041;-77
2022/10/25 00:03:07;;;;;;;25.63;17.27;;;11.90;99.90;;;;;;5007011;28;20169;-78
2022/10/25 00:05:33;;;;;;;23.98;17.10;;;11.90;99.90;;;;;;5027999;28;20392;-78
2022/10/25 00:07:59;;;;;;;22.05;16.08;;;11.90;99.90;;;;;;5033460;28;20037;-78
2022/10/25 00:10:25;;;;;;;21.58;15.73;;;11.90;99.90;;;;;;5012234;28;20053;-77
2022/10/25 00:12:50;;;;;;;27.52;17.15;;;11.80;99.90;;;;;;5039680;28;20037;-77
2022/10/25 00:15:16;;;;;;;22.75;15.63;;;11.80;99.90;;;;;;5033884;28;20077;-77
2022/10/25 00:17:42;;;;;;;23.80;16.25;;;11.80;99.90;;;;;;5033852;28;20037;-78
2022/10/25 00:20:10;;;;;;;24.60;16.20;;;11.80;99.90;;;;;;5016393;28;20064;-77
2022/10/25 00:22:36;;;;;;;24.33;15.93;;;11.80;99.90;;;;;;5017560;28;20037;-77
2022/10/25 00:25:02;;;;;;;21.08;15.55;;;11.80;99.90;;;;;;5034193;28;20037;-77
2022/10/25 00:27:28;;;;;;;22.40;15.43;;;11.70;99.90;;;;;;5028629;28;20037;-77
2022/10/25 00:29:54;;;;;;;26.20;15.48;;;11.70;99.90;;;;;;5024543;28;20492;-77
2022/10/25 00:32:20;;;;;;;22.20;14.60;;;11.70;99.90;;;;;;5033661;28;20491;-77
2022/10/25 00:34:45;;;;;;;24.85;15.52;;;11.70;99.90;;;;;;5016466;28;20439;-77
2022/10/25 00:37:11;;;;;;;25.88;16.00;;;11.70;99.90;;;;;;5032558;28;20083;-77
2022/10/25 00:39:37;;;;;;;22.77;15.77;;;11.70;99.90;;;;;;5024074;28;20069;-77
2022/10/25 00:42:03;;;;;;;22.35;14.70;;;11.70;99.90;;;;;;5021418;28;20042;-77
2022/10/25 00:44:37;;;;;;;21.45;14.27;;;11.70;99.90;;;;;;5041190;28;20435;-78
2022/10/25 00:47:39;;;;;;;22.38;14.88;;;11.80;99.90;;;;;;5016777;28;20041;-77
2022/10/25 00:50:20;;;;;;;23.35;15.18;;;11.80;99.90;;;;;;5016987;28;20041;-77
2022/10/25 00:52:50;;;;;;;21.20;14.40;;;11.80;99.90;;;;;;5011390;28;20037;-78
2022/10/25 00:55:19;;;;;;;23.35;13.90;;;11.90;99.90;;;;;;5016581;28;20033;-78
2022/10/25 00:57:52;;;;;;;23.67;13.98;;;11.90;99.90;;;;;;5032782;28;20037;-78
2022/10/25 01:00:18;;;;;;;22.75;14.23;;;12.00;99.90;;;;;;5015754;28;20060;-78
2022/10/25 01:02:43;;;;;;;22.15;14.15;;;12.00;99.90;;;;;;5025242;28;20037;-78
2022/10/25 01:05:09;;;;;;;18.35;13.23;;;12.00;99.90;;;;;;5045904;28;20037;-77
2022/10/25 01:07:35;;;;;;;19.50;12.82;;;12.10;99.90;;;;;;5025795;28;20034;-77
2022/10/25 01:10:01;;;;;;;21.52;12.75;;;12.10;99.90;;;;;;5022046;28;20117;-77
2022/10/25 01:12:27;;;;;;;23.77;12.85;;;12.10;99.90;;;;;;5033077;28;20095;-77
2022/10/25 01:14:54;;;;;;;17.20;11.90;;;12.20;99.90;;;;;;5015677;28;20038;-77
2022/10/25 01:17:31;;;;;;;17.30;12.35;;;12.20;99.90;;;;;;5015872;28;20041;-77
2022/10/25 01:20:34;;;;;;;17.85;12.15;;;12.10;99.90;;;;;;5029859;28;20044;-77
2022/10/25 01:23:17;;;;;;;19.38;12.23;;;12.10;99.90;;;;;;5015851;28;20038;-78
2022/10/25 01:25:46;;;;;;;21.90;12.07;;;12.10;99.90;;;;;;5016341;28;20048;-78
2022/10/25 01:28:34;;;;;;;19.02;11.45;;;12.10;99.90;;;;;;5027955;28;20045;-77
2022/10/25 01:31:08;;;;;;;16.98;11.35;;;12.10;99.90;;;;;;5043343;28;20041;-77
2022/10/25 01:34:02;;;;;;;20.00;11.20;;;12.10;99.90;;;;;;5015963;28;20049;-77
2022/10/25 01:36:40;;;;;;;;;;;12.10;99.90;;;;;;5016008;28;20105;-77
2022/10/25 01:39:14;;;;;;;18.35;10.85;;;12.10;99.90;;;;;;5031975;28;20414;-77
2022/10/25 01:42:07;;;;;;;23.50;11.80;;;12.10;99.90;;;;;;5030351;28;20412;-76
2022/10/25 01:44:42;;;;;;;17.83;11.02;;;12.10;99.90;;;;;;5008222;28;20042;-76
2022/10/25 01:47:14;;;;;;;16.73;11.32;;;12.10;99.90;;;;;;5015080;28;20046;-76
2022/10/25 01:49:56;;;;;;;22.13;11.55;;;12.10;99.90;;;;;;5030141;28;20037;-77
2022/10/25 01:52:23;;;;;;;16.85;11.55;;;12.20;99.90;;;;;;5020013;28;20124;-77
2022/10/25 01:54:50;;;;;;;17.52;11.98;;;12.20;99.90;;;;;;5003498;28;20046;-76
2022/10/25 01:57:46;;;;;;;17.08;11.38;;;12.30;99.90;;;;;;5004992;28;20068;-76
2022/10/25 02:00:22;;;;;;;19.20;12.05;;;12.20;99.90;;;;;;5011456;28;20124;-76
2022/10/25 02:02:53;;;;;;;15.68;11.38;;;12.30;99.90;;;;;;5010485;28;20135;-77
2022/10/25 02:05:51;;;;;;;19.23;13.35;;;12.30;99.90;;;;;;5023081;28;20087;-77
2022/10/25 02:08:33;;;;;;;17.63;13.07;;;12.30;99.90;;;;;;4971567;28;20144;-77
2022/10/25 02:10:59;;;;;;;18.85;12.40;;;12.30;99.90;;;;;;5004908;28;20034;-77
2022/10/25 02:13:51;;;;;;;18.60;12.13;;;12.40;99.90;;;;;;5006944;28;20033;-77
2022/10/25 02:16:46;;;;;;;17.30;13.15;;;12.40;99.90;;;;;;5013960;28;20034;-77
2022/10/25 02:19:16;;;;;;;17.98;13.77;;;12.40;99.90;;;;;;5014440;28;20503;-77
2022/10/25 02:21:44;;;;;;;17.60;12.77;;;12.50;99.90;;;;;;5014483;28;20124;-77
2022/10/25 02:24:25;;;;;;;20.70;12.50;;;12.50;99.90;;;;;;5030578;28;20124;-77
2022/10/25 02:26:53;;;;;;;20.38;12.88;;;12.50;99.90;;;;;;5014005;28;20148;-77
2022/10/25 02:29:21;;;;;;;21.70;13.25;;;12.50;99.90;;;;;;5021849;28;20073;-77
2022/10/25 02:31:47;;;;;;;21.60;13.80;;;12.50;99.90;;;;;;5004825;28;20034;-77
2022/10/25 02:34:12;;;;;;;18.70;13.05;;;12.50;99.90;;;;;;5027101;28;20038;-77
2022/10/25 02:36:38;;;;;;;17.77;12.27;;;12.50;99.90;;;;;;5014874;28;20444;-77
2022/10/25 02:39:06;;;;;;;20.05;12.57;;;12.50;99.90;;;;;;5028192;28;20049;-77
2022/10/25 02:41:32;;;;;;;19.10;11.80;;;12.50;99.90;;;;;;5021755;28;20044;-77
2022/10/25 02:43:58;;;;;;;21.40;13.27;;;12.50;99.90;;;;;;5021058;28;20049;-77
2022/10/25 02:46:24;;;;;;;18.60;13.30;;;12.50;99.90;;;;;;5006975;28;20048;-77
2022/10/25 02:48:50;;;;;;;20.33;12.45;;;12.40;99.90;;;;;;5030287;28;20045;-77
2022/10/25 02:51:17;;;;;;;19.75;13.30;;;12.40;99.90;;;;;;5027111;28;20370;-77
2022/10/25 02:53:43;;;;;;;14.40;11.52;;;12.40;99.90;;;;;;5026107;28;20397;-77
2022/10/25 02:56:12;;;;;;;18.88;12.93;;;12.40;99.90;;;;;;5029554;28;20041;-77
2022/10/25 02:58:40;;;;;;;25.33;12.98;;;12.30;99.90;;;;;;5023276;28;20037;-77
2022/10/25 03:01:07;;;;;;;19.40;12.95;;;12.30;99.90;;;;;;5013949;28;20045;-77
2022/10/25 03:03:33;;;;;;;25.05;13.93;;;12.30;99.90;;;;;;5024283;28;20045;-77
2022/10/25 03:05:58;;;;;;;20.60;13.13;;;12.30;99.90;;;;;;5017767;28;20491;-77
2022/10/25 03:08:25;;;;;;;20.30;13.60;;;12.30;99.90;;;;;;5021900;28;20482;-77
2022/10/25 03:10:51;;;;;;;20.58;13.95;;;12.30;99.90;;;;;;5014194;28;20424;-77
2022/10/25 03:13:17;;;;;;;21.15;13.90;;;12.30;99.90;;;;;;5029383;28;20076;-77
2022/10/25 03:15:44;;;;;;;19.35;12.90;;;12.30;99.90;;;;;;5007507;28;20046;-77
2022/10/25 03:18:10;;;;;;;23.27;13.80;;;12.30;99.90;;;;;;5011195;28;20033;-77
2022/10/25 03:20:36;;;;;;;20.63;12.95;;;12.30;99.90;;;;;;5021412;28;20399;-77
2022/10/25 03:23:02;;;;;;;19.40;12.90;;;12.30;99.90;;;;;;5029421;28;20033;-77
2022/10/25 03:25:28;;;;;;;22.05;13.70;;;12.30;99.90;;;;;;5029279;28;20080;-77
2022/10/25 03:27:53;;;;;;;21.60;13.85;;;12.30;99.90;;;;;;5029916;28;20045;-77
2022/10/25 03:30:19;;;;;;;25.38;13.50;;;12.30;99.90;;;;;;5013643;28;20065;-77
2022/10/25 03:32:45;;;;;;;20.60;13.23;;;12.30;99.90;;;;;;5030200;28;20038;-77
2022/10/25 03:35:10;;;;;;;18.17;13.20;;;12.40;99.90;;;;;;5011680;28;20041;-77
2022/10/25 03:37:36;;;;;;;17.65;12.20;;;12.30;99.90;;;;;;4999864;28;20034;-77
2022/10/25 03:40:01;;;;;;;20.88;13.50;;;12.30;99.90;;;;;;5027659;28;20067;-77
2022/10/25 03:42:27;;;;;;;22.40;14.18;;;12.30;99.90;;;;;;5030171;28;20464;-77
2022/10/25 03:44:52;;;;;;;27.13;12.85;;;12.30;99.90;;;;;;5021327;28;20049;-77
2022/10/25 03:47:18;;;;;;;21.55;13.15;;;12.30;99.90;;;;;;5029745;28;20055;-77
2022/10/25 03:49:44;;;;;;;25.67;13.55;;;12.20;99.90;;;;;;5022049;28;20045;-77
2022/10/25 03:52:10;;;;;;;20.20;12.95;;;12.20;99.90;;;;;;5020187;28;20049;-77
2022/10/25 03:54:36;;;;;;;20.02;13.57;;;12.20;99.90;;;;;;5006429;28;20038;-77
2022/10/25 03:57:02;;;;;;;18.85;13.40;;;12.20;99.90;;;;;;5027528;28;20037;-77
2022/10/25 03:59:27;;;;;;;29.85;13.52;;;12.20;99.90;;;;;;5029420;28;20404;-77
2022/10/25 04:01:53;;;;;;;22.58;13.35;;;12.20;99.90;;;;;;5030025;28;20048;-77
2022/10/25 04:04:19;;;;;;;23.60;14.32;;;12.30;99.90;;;;;;5028272;28;20036;-77
2022/10/25 04:06:45;;;;;;;23.02;14.38;;;12.30;99.90;;;;;;5029838;28;20060;-77
2022/10/25 04:09:10;;;;;;;25.70;14.38;;;12.30;99.90;;;;;;5013209;28;20037;-77
2022/10/25 04:11:36;;;;;;;23.23;14.32;;;12.30;99.90;;;;;;5013412;28;20038;-77
2022/10/25 04:14:02;;;;;;;23.90;13.23;;;12.30;99.90;;;;;;5028073;28;20079;-77
2022/10/25 04:16:27;;;;;;;27.77;14.35;;;12.40;99.90;;;;;;5022947;28;20044;-77
2022/10/25 04:18:53;;;;;;;24.60;13.70;;;12.40;99.90;;;;;;5028303;28;20033;-77
2022/10/25 04:21:20;;;;;;;21.95;12.88;;;12.50;99.90;;;;;;5025409;28;20488;-78
2022/10/25 04:23:45;;;;;;;23.33;12.27;;;12.50;99.90;;;;;;5040878;28;20083;-77
2022/10/25 04:26:16;;;;;;;22.58;12.73;;;12.50;99.90;;;;;;5021450;28;20041;-77
2022/10/25 04:28:42;;;;;;;20.20;11.60;;;12.50;99.90;;;;;;5030017;28;20519;-77
2022/10/25 04:31:07;;;;;;;20.63;11.82;;;12.50;99.90;;;;;;5025072;28;20030;-77
2022/10/25 04:33:33;;;;;;;18.45;11.02;;;12.40;99.90;;;;;;5015933;28;20088;-77
2022/10/25 04:35:58;;;;;;;24.85;12.15;;;12.30;99.90;;;;;;5029335;28;20037;-77
2022/10/25 04:38:24;;;;;;;18.20;11.02;;;12.30;99.90;;;;;;5038661;28;20069;-77
2022/10/25 04:40:58;;;;;;;16.92;10.88;;;12.30;99.90;;;;;;4996975;28;20128;-77
2022/10/25 04:43:24;;;;;;;14.20;10.50;;;12.20;99.90;;;;;;5024413;28;20041;-77
2022/10/25 04:45:51;;;;;;;22.75;11.27;;;12.20;99.90;;;;;;5028535;28;20037;-77
2022/10/25 04:48:16;;;;;;;18.40;11.02;;;12.10;99.90;;;;;;5032779;28;20376;-77
2022/10/25 04:50:42;;;;;;;17.25;11.13;;;12.10;99.90;;;;;;5031822;28;20053;-77
2022/10/25 04:53:08;;;;;;;19.08;10.75;;;12.10;99.90;;;;;;5032878;28;20045;-77
2022/10/25 04:55:33;;;;;;;19.75;11.60;;;12.00;99.90;;;;;;5028717;28;20056;-78
2022/10/25 04:57:59;;;;;;;22.30;10.75;;;12.00;99.90;;;;;;5014404;28;20048;-77
2022/10/25 05:00:25;;;;;;;18.23;10.63;;;12.00;99.90;;;;;;5025033;28;20051;-77
2022/10/25 05:02:51;;;;;;;18.05;10.98;;;12.00;99.90;;;;;;5015911;28;20533;-77
2022/10/25 05:05:17;;;;;;;16.48;10.57;;;12.00;99.90;;;;;;5031011;28;20040;-77
2022/10/25 05:07:43;;;;;;;20.52;10.48;;;12.00;99.90;;;;;;5032270;28;20049;-77
2022/10/25 05:10:09;;;;;;;12.88;9.77;;;12.00;99.90;;;;;;5016048;28;20124;-77
2022/10/25 05:12:35;;;;;;;18.38;10.50;;;12.00;99.90;;;;;;5016071;28;20087;-77
2022/10/25 05:15:00;;;;;;;17.73;10.48;;;12.00;99.90;;;;;;5031502;28;20041;-77
2022/10/25 05:17:27;;;;;;;16.45;10.60;;;12.00;99.90;;;;;;5032378;28;20049;-77
2022/10/25 05:19:52;;;;;;;17.00;10.50;;;12.00;99.90;;;;;;5030470;28;20056;-78
2022/10/25 05:22:18;;;;;;;17.00;10.88;;;12.00;99.90;;;;;;5010873;28;20041;-77
2022/10/25 05:24:43;;;;;;;21.17;10.85;;;12.00;99.90;;;;;;5031311;28;20045;-77
2022/10/25 05:27:09;;;;;;;16.13;10.98;;;12.10;99.90;;;;;;5015493;28;20099;-77
2022/10/25 05:29:34;;;;;;;16.58;11.00;;;12.10;99.90;;;;;;5032223;28;20087;-77
2022/10/25 05:32:00;;;;;;;19.70;11.18;;;12.10;99.90;;;;;;5032194;28;20041;-77
2022/10/25 05:34:26;;;;;;;15.15;10.82;;;12.10;99.90;;;;;;5030520;28;20591;-77
2022/10/25 05:36:52;;;;;;;20.67;10.77;;;12.10;99.90;;;;;;5015452;28;20049;-77
2022/10/25 05:39:18;;;;;;;22.02;11.75;;;12.10;99.90;;;;;;5027194;28;20535;-77
2022/10/25 05:41:43;;;;;;;15.82;10.20;;;12.00;99.90;;;;;;5037386;28;20049;-77
2022/10/25 05:44:09;;;;;;;18.23;10.45;;;12.00;99.90;;;;;;5030315;28;20432;-77
2022/10/25 05:46:35;;;;;;;20.50;11.32;;;12.00;99.90;;;;;;5031680;28;20500;-77
2022/10/25 05:49:01;;;;;;;21.20;11.57;;;12.00;99.90;;;;;;5015073;28;20120;-77
2022/10/25 05:51:29;;;;;;;18.77;11.25;;;12.00;99.90;;;;;;5031704;28;20088;-77
2022/10/25 05:53:57;;;;;;;19.88;11.05;;;12.00;99.90;;;;;;5030870;28;20554;-77
2022/10/25 05:56:25;;;;;;;22.73;11.05;;;11.90;99.90;;;;;;5025613;28;20431;-77
2022/10/25 05:58:51;;;;;;;20.30;11.77;;;11.90;99.90;;;;;;5028287;28;20064;-77
2022/10/25 06:01:19;;;;;;;24.83;11.75;;;11.90;99.90;;;;;;5011034;28;20084;-77
2022/10/25 06:03:49;;;;;;;21.98;11.30;;;11.90;99.90;;;;;;5007862;28;20049;-81
2022/10/25 06:06:16;;;;;;;25.15;11.75;;;11.90;99.90;;;;;;5025428;28;20041;-78
2022/10/25 06:08:42;;;;;;;22.73;11.68;;;11.90;99.90;;;;;;5029364;28;20407;-78
2022/10/25 06:11:11;;;;;;;26.75;13.50;;;11.90;99.90;;;;;;5025746;28;20034;-78
2022/10/25 06:13:38;;;;;;;20.65;12.32;;;11.90;99.90;;;;;;5016138;28;20029;-78
2022/10/25 06:16:05;;;;;;;21.15;12.15;;;12.00;99.90;;;;;;5016326;28;20135;-78
2022/10/25 06:18:31;;;;;;;24.85;11.65;;;12.00;99.90;;;;;;5028921;28;20037;-78
2022/10/25 06:21:01;;;;;;;25.52;12.88;;;12.00;99.90;;;;;;5029008;28;20037;-79
2022/10/25 06:23:27;;;;;;;20.08;11.55;;;12.10;99.90;;;;;;5014937;28;20069;-78
2022/10/25 06:25:59;;;;;;;25.45;11.57;;;12.10;99.90;;;;;;5030362;28;20041;-78
2022/10/25 06:28:24;;;;;;;22.27;11.75;;;12.20;99.90;;;;;;5016456;28;20161;-78
2022/10/25 06:30:50;;;;;;;27.55;11.90;;;12.20;99.90;;;;;;5032036;28;20080;-78
2022/10/25 06:33:15;;;;;;;26.08;11.80;;;12.20;99.90;;;;;;5010387;28;20045;-78
2022/10/25 06:35:41;;;;;;;24.33;11.75;;;12.20;99.90;;;;;;5022950;28;20033;-76
2022/10/25 06:38:06;;;;;;;21.77;11.18;;;12.20;99.90;;;;;;5028490;28;20616;-77
2022/10/25 06:40:32;;;;;;;22.98;11.77;;;12.10;99.90;;;;;;5025866;28;20060;-77
2022/10/25 06:42:57;;;;;;;26.45;11.63;;;12.20;99.90;;;;;;5023768;28;20049;-77
2022/10/25 06:45:23;;;;;;;22.08;11.05;;;12.10;99.90;;;;;;5031574;28;20514;-77
2022/10/25 06:47:49;;;;;;;27.42;12.15;;;12.10;99.90;;;;;;5002253;28;20066;-77
2022/10/25 06:50:15;;;;;;;23.00;11.95;;;12.10;99.90;;;;;;5022205;28;20034;-77
2022/10/25 06:52:40;;;;;;;25.13;11.93;;;12.10;99.90;;;;;;5014604;28;20061;-77
2022/10/25 06:55:06;;;;;;;23.40;12.45;;;12.10;99.90;;;;;;5029263;28;20079;-78
2022/10/25 06:57:32;;;;;;;28.98;11.82;;;12.20;99.90;;;;;;5002553;28;20037;-78
2022/10/25 06:59:57;;;;;;;22.67;12.48;;;12.30;99.90;;;;;;5014370;28;20041;-78
2022/10/25 07:02:23;;;;;;;24.98;11.48;;;12.30;99.90;;;;;;5031664;28;20471;-79
2022/10/25 07:04:48;;;;;;;20.83;11.52;;;12.20;99.90;;;;;;5015106;28;20041;-79
2022/10/25 07:07:14;;;;;;;28.55;13.05;;;12.30;99.90;;;;;;5014952;28;20129;-79
2022/10/25 07:09:40;;;;;;;23.95;12.00;;;12.20;99.90;;;;;;5013995;28;20452;-78
2022/10/25 07:12:06;;;;;;;24.65;13.07;;;12.20;99.90;;;;;;5031562;28;20602;-78
2022/10/25 07:14:32;;;;;;;28.25;13.82;;;12.30;99.90;;;;;;5015809;28;20092;-78
2022/10/25 07:16:57;;;;;;;22.23;12.30;;;12.30;99.90;;;;;;5014456;28;20034;-78
2022/10/25 07:19:23;;;;;;;21.00;12.45;;;12.30;99.90;;;;;;5010940;28;20539;-78
2022/10/25 07:21:49;;;;;;;24.92;13.45;;;12.40;99.90;;;;;;5029869;28;20093;-78
2022/10/25 07:24:15;;;;;;;27.48;14.27;;;12.40;99.90;;;;;;5031170;28;20038;-78
2022/10/25 07:26:40;;;;;;;20.50;12.75;;;12.40;99.90;;;;;;5030427;28;20044;-77
2022/10/25 07:29:06;;;;;;;26.20;14.02;;;12.40;99.90;;;;;;5028223;28;20041;-78
2022/10/25 07:31:35;;;;;;;25.08;14.45;;;12.40;99.90;;;;;;5014131;28;20029;-78
2022/10/25 07:34:02;;;;;;;22.23;13.60;;;12.50;99.90;;;;;;5031917;28;20064;-79
2022/10/25 07:36:28;;;;;;;22.60;13.93;;;12.60;99.90;;;;;;5021468;28;20037;-78
2022/10/25 07:38:55;;;;;;;23.13;14.02;;;12.70;99.90;;;;;;5025638;28;20072;-76
2022/10/25 07:41:21;;;;;;;21.90;12.93;;;12.70;99.90;;;;;;5029910;28;20041;-75
2022/10/25 07:43:47;;;;;;;22.42;12.77;;;12.70;99.90;;;;;;5031248;28;20538;-77
2022/10/25 07:46:13;;;;;;;21.88;13.07;;;12.80;99.90;;;;;;5008605;28;20045;-77
2022/10/25 07:48:39;;;;;;;21.98;13.48;;;12.80;99.90;;;;;;5028922;28;20045;-76
2022/10/25 07:51:10;;;;;;;20.02;12.98;;;12.70;99.90;;;;;;5027584;28;20147;-76
2022/10/25 07:53:36;;;;;;;27.45;14.23;;;12.80;99.90;;;;;;5022270;28;20506;-76
2022/10/25 07:56:02;;;;;;;22.92;14.30;;;12.80;99.90;;;;;;5012804;28;20034;-77
2022/10/25 07:58:28;;;;;;;21.52;14.25;;;12.90;99.90;;;;;;5028972;28;20180;-76
2022/10/25 08:01:00;;;;;;;22.17;14.02;;;12.90;99.90;;;;;;5027130;28;20420;-77
2022/10/25 08:03:26;;;;;;;21.20;13.80;;;12.90;99.90;;;;;;5008242;28;20029;-76
2022/10/25 08:05:51;;;;;;;19.30;13.30;;;12.90;99.90;;;;;;5033971;28;20049;-77
2022/10/25 08:08:18;;;;;;;19.80;14.65;;;12.90;99.90;;;;;;5012703;28;20084;-76
2022/10/25 08:10:44;;;;;;;19.23;13.57;;;13.00;99.90;;;;;;5031446;28;20033;-76
2022/10/25 08:13:10;;;;;;;21.50;13.30;;;13.10;99.90;;;;;;5009347;28;20048;-76
2022/10/25 08:15:36;;;;;;;18.55;13.32;;;13.20;99.90;;;;;;5030765;28;20033;-76
2022/10/25 08:18:02;;;;;;;18.38;13.30;;;13.20;99.90;;;;;;5033371;28;20407;-76
2022/10/25 08:20:28;;;;;;;21.15;12.80;;;13.20;99.90;;;;;;5014948;28;20116;-76
2022/10/25 08:22:58;;;;;;;21.20;14.27;;;13.30;99.90;;;;;;5032453;28;20120;-77
2022/10/25 08:25:24;;;;;;;19.65;13.43;;;13.30;99.90;;;;;;5016441;28;20041;-77
2022/10/25 08:27:49;;;;;;;21.27;13.43;;;13.30;99.90;;;;;;5033308;28;20049;-77
2022/10/25 08:30:15;;;;;;;20.55;13.30;;;13.40;99.90;;;;;;5029458;28;20045;-77
2022/10/25 08:32:41;;;;;;;18.27;12.18;;;13.50;99.90;;;;;;5016892;28;20065;-76
2022/10/25 08:35:07;;;;;;;15.70;10.98;;;13.40;99.90;;;;;;5014637;28;20029;-76
2022/10/25 08:37:32;;;;;;;17.17;12.07;;;13.50;99.90;;;;;;5024949;28;20069;-77
2022/10/25 08:39:58;;;;;;;16.73;11.15;;;13.60;99.90;;;;;;5031505;28;20536;-76
2022/10/25 08:42:46;;;;;;;19.23;11.18;;;13.70;99.90;;;;;;5025086;28;20044;-76
2022/10/25 08:45:25;;;;;;;17.90;10.43;;;13.80;99.90;;;;;;5032223;28;20110;-76
2022/10/25 08:47:55;;;;;;;14.55;10.18;;;13.80;99.90;;;;;;5016005;28;20561;-76
2022/10/25 08:50:21;;;;;;;18.15;10.55;;;13.80;99.90;;;;;;5013094;28;20045;-76
2022/10/25 08:52:52;;;;;;;14.95;10.32;;;13.90;99.90;;;;;;4996944;28;20045;-76
2022/10/25 08:55:39;;;;;;;16.92;9.60;;;14.00;99.90;;;;;;4997106;28;20488;-76
2022/10/25 08:58:13;;;;;;;14.45;9.05;;;14.10;99.90;;;;;;5030424;28;20431;-76
2022/10/25 09:00:41;;;;;;;12.70;9.43;;;14.10;99.90;;;;;;5026342;28;20069;-76
2022/10/25 09:03:16;;;;;;;17.98;9.60;;;14.20;99.90;;;;;;5024462;28;20124;-77
2022/10/25 09:06:07;;;;;;;14.75;9.23;;;14.30;99.90;;;;;;5014004;28;20060;-77
2022/10/25 09:08:48;;;;;;;12.07;7.90;;;14.30;99.90;;;;;;5025481;28;20076;-76
2022/10/25 09:11:28;;;;;;;13.77;8.43;;;14.40;99.90;;;;;;5032332;28;20040;-76
2022/10/25 09:14:06;;;;;;;11.60;8.05;;;14.40;99.90;;;;;;5028535;28;20500;-76
2022/10/25 09:16:36;;;;;;;12.50;7.88;;;14.40;99.90;;;;;;5030625;28;20042;-76
2022/10/25 09:19:36;;;;;;;12.50;7.45;;;14.40;99.90;;;;;;5032218;28;20056;-76
2022/10/25 09:22:10;;;;;;;12.93;7.90;;;14.50;99.90;;;;;;4946723;28;20055;-76
2022/10/25 09:24:59;;;;;;;8.93;7.45;;;14.60;99.90;;;;;;5027645;28;20119;-76
2022/10/25 09:27:37;;;;;;;14.10;7.75;;;14.80;99.90;;;;;;5023489;28;20176;-75
2022/10/25 09:30:07;;;;;;;15.35;7.90;;;14.80;99.90;;;;;;5021684;28;20041;-76
2022/10/25 09:32:36;;;;;;;12.65;7.38;;;14.80;99.90;;;;;;5015602;28;20052;-75
2022/10/25 09:35:04;;;;;;;10.07;6.97;;;14.90;99.90;;;;;;5021789;28;20037;-76
2022/10/25 09:37:40;;;;;;;12.38;7.50;;;14.80;99.90;;;;;;5031729;28;20037;-76
2022/10/25 09:40:13;;;;;;;10.43;7.65;;;14.80;99.90;;;;;;5032203;28;20518;-77
2022/10/25 09:42:51;;;;;;;10.20;6.72;;;14.80;99.90;;;;;;5005978;28;20049;-76
2022/10/25 09:45:26;;;;;;;10.68;6.28;;;14.90;99.90;;;;;;5032772;28;20042;-76
2022/10/25 09:48:10;;;;;;;10.32;6.10;;;14.80;99.90;;;;;;5023304;28;20500;-77
2022/10/25 09:50:42;;;;;;;12.60;6.80;;;14.80;99.90;;;;;;5021145;28;20033;-77
2022/10/25 09:53:14;;;;;;;10.50;6.15;;;14.70;99.90;;;;;;5015872;28;20167;-77
2022/10/25 09:55:55;;;;;;;13.80;7.13;;;14.70;99.90;;;;;;5032713;28;20064;-77
2022/10/25 09:58:29;;;;;;;12.23;6.93;;;14.80;99.90;;;;;;5031216;28;20069;-77
2022/10/25 10:01:15;;;;;;;11.25;5.82;;;14.80;99.90;;;;;;5013155;28;20145;-77
2022/10/25 10:03:42;;;;;;;11.93;6.10;;;14.80;99.90;;;;;;5011537;28;20537;-77
2022/10/25 10:06:21;;;;;;;8.70;5.85;;;14.80;99.90;;;;;;5022977;28;20559;-78
2022/10/25 10:08:51;;;;;;;10.52;6.80;;;14.70;99.90;;;;;;5030404;28;20071;-77
2022/10/25 10:11:18;;;;;;;9.65;6.30;;;14.60;99.90;;;;;;5001176;28;20029;-77
2022/10/25 10:14:21;;;;;;;11.52;6.22;;;14.50;99.90;;;;;;5023317;28;20407;-77
2022/10/25 10:16:49;;;;;;;10.55;6.07;;;14.50;99.90;;;;;;5003612;28;20107;-77
2022/10/25 10:19:21;;;;;;;12.00;6.43;;;14.50;99.90;;;;;;5015952;28;20048;-76
2022/10/25 10:21:54;;;;;;;9.77;6.65;;;14.50;99.90;;;;;;5023111;28;20389;-76
2022/10/25 10:24:32;;;;;;;11.57;6.85;;;14.60;99.90;;;;;;5002895;28;20041;-77
2022/10/25 10:27:05;;;;;;;8.82;6.20;;;14.70;99.90;;;;;;5028534;28;20044;-77
2022/10/25 10:29:34;;;;;;;11.98;7.53;;;14.70;99.90;;;;;;5013772;28;20041;-75
2022/10/25 10:32:20;;;;;;;9.02;6.45;;;14.70;99.90;;;;;;5026849;28;20048;-76
2022/10/25 10:34:52;;;;;;;10.90;6.65;;;14.90;99.90;;;;;;5013659;28;20041;-76
2022/10/25 10:37:23;;;;;;;8.68;5.88;;;15.00;99.90;;;;;;5005650;28;20483;-76
2022/10/25 10:40:22;;;;;;;10.80;7.03;;;15.20;99.90;;;;;;5021611;28;20046;-76
2022/10/25 10:42:48;;;;;;;10.68;5.80;;;15.30;99.90;;;;;;5002601;28;20050;-76
2022/10/25 10:45:16;;;;;;;9.02;4.90;;;15.40;99.90;;;;;;5028769;28;20431;-76
2022/10/25 10:47:48;;;;;;;10.00;5.30;;;15.60;99.90;;;;;;5008449;28;20034;-76
2022/10/25 10:50:19;;;;;;;8.07;4.70;;;15.90;99.90;;;;;;5009721;28;20049;-76
2022/10/25 10:52:47;;;;;;;10.25;5.07;;;16.00;99.90;;;;;;5014576;28;20037;-76
2022/10/25 10:55:29;;;;;;;8.20;4.40;;;16.20;99.90;;;;;;5014494;28;20037;-76
2022/10/25 10:58:00;;;;;;;6.30;4.37;;;16.40;99.90;;;;;;5009595;28;20084;-76
2022/10/25 11:00:29;;;;;;;9.82;4.60;;;16.50;99.90;;;;;;5013204;28;20295;-76
2022/10/25 11:02:55;;;;;;;10.75;4.97;;;16.50;99.90;;;;;;5021380;28;20048;-76
2022/10/25 11:05:33;;;;;;;8.60;4.75;;;16.70;99.90;;;;;;5004689;28;20029;-76
2022/10/25 11:08:07;;;;;;;7.25;3.70;;;16.80;99.90;;;;;;5000755;28;20586;-76
2022/10/25 11:10:37;;;;;;;9.30;4.07;;;16.80;99.90;;;;;;5029299;28;20125;-76
2022/10/25 11:13:17;;;;;;;9.57;4.03;;;16.70;99.90;;;;;;5022699;28;20067;-76
2022/10/25 11:16:03;;;;;;;4.90;2.80;;;16.50;99.90;;;;;;5006203;28;20033;-77
2022/10/25 11:18:51;;;;;;;8.23;4.22;;;16.40;99.90;;;;;;5010762;28;20404;-76
2022/10/25 11:21:36;;;;;;;9.57;4.15;;;16.30;99.90;;;;;;5013880;28;20068;-76
2022/10/25 11:24:24;;;;;;;9.20;4.18;;;16.20;99.90;;;;;;5029357;28;20079;-77
2022/10/25 11:27:01;;;;;;;8.30;4.25;;;16.40;99.90;;;;;;5018661;28;20049;-78
2022/10/25 11:29:56;;;;;;;9.57;4.90;;;16.40;99.90;;;;;;5015816;28;20042;-76
2022/10/25 11:32:46;;;;;;;6.68;3.80;;;16.30;99.90;;;;;;5014211;28;20041;-76
2022/10/25 11:35:34;;;;;;;9.70;4.25;;;16.50;99.90;;;;;;5030578;28;20447;-77
2022/10/25 11:38:22;;;;;;;8.75;3.92;;;16.70;99.90;;;;;;5026481;28;20499;-76
2022/10/25 11:41:26;;;;;;;7.50;2.90;;;16.80;99.90;;;;;;5017774;28;20042;-78
2022/10/25 11:44:07;;;;;;;6.13;2.75;;;16.80;99.90;;;;;;5003469;28;20130;-77
2022/10/25 11:47:04;;;;;;;9.70;3.15;;;16.60;99.90;;;;;;5022230;28;20050;-76
2022/10/25 11:49:42;;;;;;;6.70;2.67;;;16.50;99.90;;;;;;5006633;28;20038;-77
2022/10/25 11:52:36;;;;;;;7.03;2.92;;;16.40;99.90;;;;;;5030827;28;20541;-77
2022/10/25 11:55:28;;;;;;;5.47;2.67;;;16.40;99.90;;;;;;5031433;28;20037;-76
2022/10/25 11:58:20;;;;;;;5.75;2.63;;;16.60;99.90;;;;;;5024804;28;20046;-77
2022/10/25 12:01:07;;;;;;;5.57;3.20;;;16.90;99.90;;;;;;5029473;28;20041;-76
2022/10/25 12:03:55;;;;;;;7.55;3.10;;;17.10;99.90;;;;;;5012003;28;20061;-77
2022/10/25 12:06:39;;;;;;;7.75;2.78;;;17.40;99.90;;;;;;5026379;28;20132;-76
2022/10/25 12:09:30;;;;;;;6.07;3.08;;;17.50;99.90;;;;;;5017194;28;20124;-77
2022/10/25 12:12:02;;;;;;;4.60;2.30;;;17.60;99.90;;;;;;5021997;28;20400;-77
2022/10/25 12:14:35;;;;;;;7.60;2.70;;;17.70;99.90;;;;;;5033906;28;20069;-77
2022/10/25 12:17:02;;;;;;;5.88;2.33;;;17.60;99.90;;;;;;5033789;28;20527;-77
2022/10/25 12:19:34;;;;;;;6.35;2.63;;;17.50;99.90;;;;;;5014458;28;20052;-77
2022/10/25 12:22:05;;;;;;;7.45;2.92;;;17.30;99.90;;;;;;5031519;28;20543;-76
2022/10/25 12:24:42;;;;;;;5.30;3.13;;;17.10;99.90;;;;;;5027169;28;20080;-77
2022/10/25 12:27:10;;;;;;;6.72;2.85;;;17.00;99.90;;;;;;5033502;28;20376;-77
2022/10/25 12:29:44;;;;;;;7.90;3.10;;;17.10;99.90;;;;;;5033423;28;20044;-77
2022/10/25 12:32:19;;;;;;;7.70;3.08;;;17.30;99.90;;;;;;5033819;28;20049;-76
2022/10/25 12:34:52;;;;;;;5.72;2.72;;;17.50;99.90;;;;;;5025708;28;20176;-77
2022/10/25 12:37:25;;;;;;;7.20;2.47;;;17.60;99.90;;;;;;5028331;28;20041;-76
2022/10/25 12:39:51;;;;;;;6.40;2.80;;;17.40;99.90;;;;;;5016817;28;20045;-77
2022/10/25 12:42:20;;;;;;;8.18;3.38;;;17.20;99.90;;;;;;5017161;28;20045;-76
2022/10/25 12:44:58;;;;;;;6.65;2.97;;;17.00;99.90;;;;;;5023793;28;20382;-77
2022/10/25 12:47:37;;;;;;;5.05;2.60;;;16.90;99.90;;;;;;5007918;28;20130;-77
2022/10/25 12:50:08;;;;;;;5.13;2.03;;;16.80;99.90;;;;;;5032480;28;20046;-77